• Join FlightAware (Why Join?)
  • Login
  • US Flag 
12:12PM EDT


 

Airport Tracker/Info


-or-


 

Live Flight TrackerFlight Track Log ✈ JBU325 ✈ 06-Feb-2014 ✈ KJFK - KTPA

Flight Track Log - Related Links

Times and Time Zones

All times are in EST time to prevent confusion due to time zone crossing. See the JBU325 flight status page for this flight to view local times or setup timezone preferences in your user account.

Time Position Orientation Groundspeed Altitude Reporting Facility
EST Latitude Longitude Course Direction KTS MPH feet Rate Location/Type
03:33PM 40.6167 -73.8833 226° Southwest 229 264 2,600  Level New York TRACON
03:34PM 40.5667 -73.9333 217° Southwest 253 291 6,200 3,300 Climbing New York TRACON
03:35PM 40.3985 -74.1523 229° Southwest  Level FlightAware Approximate
03:35PM 40.5000 -73.9833 210° Southwest 265 305 9,300  Level New York TRACON
03:36PM 40.3377 -74.2484 232° Southwest  Level FlightAware Approximate
03:36PM 40.4333 -74.0333 210° Southwest 289 333 11,400  Level New York TRACON
03:37PM 40.2788 -74.3466 232° Southwest  Level FlightAware Approximate
03:37PM 40.3833 -74.1167 232° Southwest 314 361 13,400  Level New York TRACON
03:37PM 40.3622 -74.1814 247° West 303 349 15,100 2,040 Climbing New York Center
03:38PM 40.2205 -74.4393 226° Southwest  Level FlightAware Approximate
03:38PM 40.3114 -74.2822 237° Southwest 303 349 17,000  Level New York Center
03:39PM 40.2792 -74.3811 247° West 303 349 17,000 540 Level New York Center
03:40PM 40.2653 -74.4919 261° West 303 349 18,100 1,380 Climbing New York Center
03:41PM 40.2497 -74.5892 258° West 308 354 19,800 1,800 Climbing New York Center
03:42PM 40.2311 -74.7131 259° West 314 361 21,800 1,980 Climbing New York Center
03:43PM 40.2167 -74.8292 261° West 320 368 23,800 1,380 Climbing New York Center
03:44PM 40.2008 -74.9261 258° West 320 368 24,600 960 Climbing New York Center
03:45PM 40.1822 -75.0392 258° West 315 362 25,800 1,260 Climbing New York Center
03:46PM 40.1653 -75.1575 259° West 326 375 27,200 1,320 Climbing New York Center
03:47PM 40.1486 -75.2733 259° West 331 381 28,500 1,080 Climbing New York Center
03:48PM 40.1150 -75.3878 249° West 331 381 29,400 1,320 Climbing New York Center
03:49PM 40.0592 -75.4817 232° Southwest 331 381 31,200 1,680 Climbing New York Center
03:50PM 40.0014 -75.5644 228° Southwest 325 374 32,800 1,140 Climbing New York Center
03:51PM 39.9419 -75.6417 225° Southwest 319 367 33,600 600 Climbing New York Center
03:52PM 39.8864 -75.7272 230° Southwest 314 361 34,000 180 Climbing New York Center
03:53PM 39.8350 -75.8100 231° Southwest 308 354 34,000  Level New York Center
03:54PM 39.7833 -75.8928 231° Southwest 303 349 34,000 -60 Level New York Center
03:55PM 39.7294 -75.9806 231° Southwest 303 349 33,900  Descending New York Center
03:56PM 39.6778 -76.0631 231° Southwest 303 349 34,000  Climbing New York Center
03:57PM 39.6219 -76.1481 230° Southwest 308 354 34,000  Level New York Center
03:58PM 39.5597 -76.2375 228° Southwest 313 360 34,000  Level Washington Center
03:59PM 39.5114 -76.3125 230° Southwest 309 356 34,000 -60 Level Washington Center
04:00PM 39.4589 -76.3953 231° Southwest 309 356 33,900  Descending Washington Center
04:01PM 39.4061 -76.4806 231° Southwest 309 356 34,000  Climbing Washington Center
04:02PM 39.3472 -76.5683 229° Southwest 309 356 34,000  Level Washington Center
04:03PM 39.2944 -76.6508 230° Southwest 304 350 34,000  Level Washington Center
04:04PM 39.2478 -76.7253 231° Southwest 304 350 34,000  Level Washington Center
04:05PM 39.1950 -76.8075 230° Southwest 304 350 34,000  Level Washington Center
04:06PM 39.1397 -76.8922 230° Southwest 304 350 34,000  Level Washington Center
04:07PM 39.0867 -76.9769 231° Southwest 304 350 34,000  Level Washington Center
04:08PM 39.0294 -77.0558 227° Southwest 304 350 34,000  Level Washington Center
04:09PM 38.9642 -77.1267 220° Southwest 309 356 34,000  Level Washington Center
04:10PM 38.8986 -77.2000 221° Southwest 309 356 34,000  Level Washington Center
04:11PM 38.8350 -77.2706 221° Southwest 315 362 34,000  Level Washington Center
04:12PM 38.7672 -77.3408 219° Southwest 315 362 34,000  Level Washington Center
04:13PM 38.7017 -77.4111 220° Southwest 315 362 34,000  Level Washington Center
04:14PM 38.6358 -77.4839 221° Southwest 315 362 34,000  Level Washington Center
04:15PM 38.5681 -77.5539 219° Southwest 315 362 34,000  Level Washington Center
04:16PM 38.5000 -77.6239 219° Southwest 315 362 34,000  Level Washington Center
04:17PM 38.4322 -77.6908 218° Southwest 320 368 34,000  Level Washington Center
04:18PM 38.3600 -77.7631 218° Southwest 320 368 34,000  Level Washington Center
04:19PM 38.2922 -77.8297 218° Southwest 320 368 34,000  Level Washington Center
04:20PM 38.2242 -77.8992 219° Southwest 320 368 34,000  Level Washington Center
04:21PM 38.1497 -77.9733 218° Southwest 325 374 34,000  Level Washington Center
04:22PM 38.0794 -78.0425 218° Southwest 325 374 34,000  Level Washington Center
04:23PM 38.0242 -78.0958 217° Southwest 325 374 34,000  Level Washington Center
04:24PM 37.9475 -78.1697 217° Southwest 325 374 34,000  Level Washington Center
04:25PM 37.8750 -78.2461 220° Southwest 312 359 34,000  Level Washington Center
04:26PM 37.8108 -78.3097 218° Southwest 312 359 34,000  Level Washington Center
04:27PM 37.7406 -78.3756 217° Southwest 317 365 34,000  Level Washington Center
04:28PM 37.6722 -78.4436 218° Southwest 317 365 34,000  Level Washington Center
04:29PM 37.6017 -78.5092 216° Southwest 317 365 34,000  Level Washington Center
04:30PM 37.5292 -78.5797 218° Southwest 323 372 34,000  Level Washington Center
04:31PM 37.4522 -78.6528 217° Southwest 323 372 34,000  Level Washington Center
04:32PM 37.3817 -78.7203 217° Southwest 323 372 34,000  Level Washington Center
04:33PM 37.3111 -78.7881 217° Southwest 323 372 34,000  Level Washington Center
04:34PM 37.2403 -78.8556 217° Southwest 323 372 34,000  Level Washington Center
04:35PM 37.1675 -78.9228 216° Southwest 323 372 34,000  Level Washington Center
04:36PM 37.1033 -78.9850 218° Southwest 323 372 34,000  Level Washington Center
04:37PM 37.0303 -79.0522 216° Southwest 323 372 34,000  Level Washington Center
04:38PM 36.9594 -79.1192 217° Southwest 323 372 34,000  Level Washington Center
04:39PM 36.8886 -79.1886 218° Southwest 323 372 34,000  Level Washington Center
04:40PM 36.8178 -79.2553 217° Southwest 323 372 34,000  Level Washington Center
04:41PM 36.7469 -79.3219 217° Southwest 323 372 34,000  Level Washington Center
04:44PM 36.5561 -79.4978 217° Southwest 307 353 34,000  Level Atlanta Center
04:45PM 36.4856 -79.5664 218° Southwest 307 353 34,000  Level Atlanta Center
04:46PM 36.4150 -79.6322 217° Southwest 307 353 34,000  Level Atlanta Center
04:47PM 36.3403 -79.6983 215° Southwest 319 367 34,000  Level Atlanta Center
04:48PM 36.2636 -79.7719 218° Southwest 327 376 34,000  Level Atlanta Center
04:49PM 36.1889 -79.8403 216° Southwest 337 388 34,000  Level Atlanta Center
04:50PM 36.1158 -79.9056 216° Southwest 337 388 34,000  Level Atlanta Center
04:51PM 36.0431 -79.9711 216° Southwest 332 382 34,100  Climbing Atlanta Center
04:52PM 35.9631 -80.0136 203° Southwest 332 382 34,000 -60 Descending Atlanta Center
04:53PM 35.8769 -80.0589 203° Southwest 342 394 34,000  Level Atlanta Center
04:54PM 35.7908 -80.1092 205° Southwest 342 394 34,000  Level Atlanta Center
04:55PM 35.6983 -80.1519 201° Southwest 347 399 34,000  Level Atlanta Center
04:56PM 35.6019 -80.2000 202° Southwest 352 405 34,000  Level Atlanta Center
04:57PM 35.5136 -80.2447 202° Southwest 352 405 34,000  Level Atlanta Center
04:58PM 35.4272 -80.2897 203° Southwest 352 405 34,000  Level Atlanta Center
04:59PM 35.3347 -80.3344 202° Southwest 347 399 34,000  Level Atlanta Center
05:01PM 35.1742 -80.4142 202° Southwest 350 403 34,000  Level Jacksonville Center
05:02PM 35.0833 -80.4575 201° Southwest 350 403 34,000  Level Jacksonville Center
05:03PM 34.9925 -80.5031 202° Southwest 350 403 34,000  Level Jacksonville Center
05:04PM 34.9036 -80.5461 202° Southwest 350 403 34,000  Level Jacksonville Center
05:05PM 34.8044 -80.5994 204° Southwest 350 403 34,000  Level Jacksonville Center
05:06PM 34.7133 -80.6397 200° South 350 403 34,000  Level Jacksonville Center
05:07PM 34.6225 -80.6875 203° Southwest 350 403 34,000  Level Jacksonville Center
05:08PM 34.5314 -80.7328 202° Southwest 350 403 34,000  Level Jacksonville Center
05:09PM 34.4383 -80.7753 201° Southwest 350 403 34,000  Level Jacksonville Center
05:10PM 34.3472 -80.8203 202° Southwest 350 403 34,000  Level Jacksonville Center
05:11PM 34.2561 -80.8650 202° Southwest 350 403 34,000  Level Jacksonville Center
05:12PM 34.1631 -80.9100 202° Southwest 350 403 34,000 -60 Level Jacksonville Center
05:13PM 34.0678 -80.9547 201° Southwest 350 403 33,900  Descending Jacksonville Center
05:14PM 33.9744 -81.0019 203° Southwest 355 409 34,000  Climbing Jacksonville Center
05:15PM 33.8814 -81.0439 201° Southwest 366 421 34,000  Level Jacksonville Center
05:16PM 33.7839 -81.0908 202° Southwest 366 421 34,000 -60 Level Jacksonville Center
05:17PM 33.6989 -81.1375 205° Southwest 371 427 33,900  Descending Jacksonville Center
05:18PM 33.6036 -81.1819 201° Southwest 371 427 34,000  Climbing Jacksonville Center
05:19PM 33.5083 -81.2286 202° Southwest 371 427 34,000  Level Jacksonville Center
05:20PM 33.4128 -81.2753 202° Southwest 371 427 34,000  Level Jacksonville Center
05:21PM 33.3153 -81.3217 202° Southwest 371 427 34,000  Level Jacksonville Center
05:22PM 33.2200 -81.3681 202° Southwest 376 433 34,000  Level Jacksonville Center
05:23PM 33.1244 -81.4192 204° Southwest 376 433 34,000  Level Jacksonville Center
05:24PM 33.0289 -81.4631 201° Southwest 376 433 34,000  Level Jacksonville Center
05:25PM 32.9314 -81.5092 202° Southwest 376 433 34,000  Level Jacksonville Center
05:26PM 32.8317 -81.5575 202° Southwest 376 433 34,000  Level Jacksonville Center
05:27PM 32.7361 -81.6033 202° Southwest 376 433 34,000  Level Jacksonville Center
05:28PM 32.6344 -81.6567 204° Southwest 371 427 34,000  Level Jacksonville Center
05:29PM 32.5325 -81.7025 201° Southwest 381 438 34,000  Level Jacksonville Center
05:30PM 32.4369 -81.7506 203° Southwest 381 438 34,000  Level Jacksonville Center
05:31PM 32.3475 -81.7933 202° Southwest 381 438 34,000  Level Jacksonville Center
05:32PM 32.2417 -81.8439 202° Southwest 375 432 34,000  Level Jacksonville Center
05:33PM 32.1439 -81.8892 201° Southwest 375 432 34,000  Level Jacksonville Center
05:34PM 32.0544 -81.9317 202° Southwest 380 437 34,000  Level Jacksonville Center
05:35PM 31.9461 -81.9817 201° Southwest 380 437 34,000  Level Jacksonville Center
05:36PM 31.8544 -82.0169 198° South 385 443 34,000  Level Jacksonville Center
05:37PM 31.7419 -82.0619 199° South 385 443 34,000  Level Jacksonville Center
05:38PM 31.6400 -82.1019 198° South 385 443 34,000  Level Jacksonville Center
05:39PM 31.5358 -82.1467 200° South 396 456 34,000  Level Jacksonville Center
05:40PM 31.4317 -82.1864 198° South 396 456 34,000  Level Jacksonville Center
05:41PM 31.3297 -82.2286 199° South 396 456 34,000  Level Jacksonville Center
05:42PM 31.2233 -82.2489 189° South 403 464 34,000  Level Jacksonville Center
05:43PM 31.1064 -82.2569 183° South 414 476 34,000  Level Jacksonville Center
05:44PM 30.9894 -82.2672 184° South 419 482 34,000  Level Jacksonville Center
05:45PM 30.8747 -82.2731 182° South 419 482 34,000  Level Jacksonville Center
05:46PM 30.7831 -82.3364 211° Southwest 393 452 34,000 -60 Level Jacksonville Center
05:47PM 30.6894 -82.4022 211° Southwest 388 447 33,900 -60 Descending Jacksonville Center
05:48PM 30.6019 -82.4703 214° Southwest 388 447 33,900  Level Jacksonville Center
05:49PM 30.5125 -82.5381 213° Southwest 388 447 34,000 -60 Climbing Jacksonville Center
05:50PM 30.4208 -82.6083 213° Southwest 394 453 33,800 -540 Descending Jacksonville Center
05:51PM 30.3353 -82.6711 212° Southwest 389 448 33,000 -420 Descending Jacksonville Center
05:52PM 30.2433 -82.7411 213° Southwest 389 448 33,000  Level Jacksonville Center
05:53PM 30.1558 -82.8086 214° Southwest 389 448 33,000  Level Jacksonville Center
05:54PM 30.0661 -82.8781 214° Southwest 395 455 33,000  Level Jacksonville Center
05:55PM 29.9722 -82.9500 214° Southwest 400 460 33,000  Level Jacksonville Center
05:56PM 29.8803 -83.0194 213° Southwest 400 460 33,000  Level Jacksonville Center
05:57PM 29.7800 -83.1008 215° Southwest 395 455 33,000 -60 Level Jacksonville Center
05:58PM 29.6964 -83.1603 212° Southwest 395 455 32,900  Descending Jacksonville Center
05:59PM 29.6042 -83.2294 213° Southwest 395 455 33,000 -240 Climbing Jacksonville Center
06:00PM 29.4975 -83.3053 212° Southwest 395 455 32,500 -960 Descending Jacksonville Center
06:01PM 29.3992 -83.3644 208° Southwest 400 460 31,100 -2,040 Descending Jacksonville Center
06:02PM 29.2886 -83.3997 196° South 410 472 28,500 -2,460 Descending Jacksonville Center
06:03PM 29.1694 -83.4061 183° South 421 484 26,200 -2,100 Descending Jacksonville Center
06:04PM 29.0506 -83.3867 172° South 421 484 24,300 -1,860 Descending Jacksonville Center
06:05PM 28.9442 -83.3339 157° South 421 484 22,500 -1,800 Descending Jacksonville Center
06:06PM 28.8483 -83.2767 152° Southeast 412 474 20,700 -1,740 Descending Jacksonville Center
06:07PM 28.7547 -83.2147 150° Southeast 400 460 19,100 -1,680 Descending Jacksonville Center
06:09PM 28.6000 -83.1167 151° Southeast 369 425 16,100 -1,680 Descending Tampa TRACON
06:10PM 28.5000 -83.0500 150° Southeast 357 411 14,600 -1,500 Descending Tampa TRACON
06:11PM 28.4333 -83.0167 156° South 346 398 13,300 -1,860 Descending Tampa TRACON
06:12PM 28.3500 -82.9667 152° Southeast 336 387 11,100 -1,200 Descending Tampa TRACON
06:13PM 28.2667 -82.9167 152° Southeast 330 380 11,000 -300 Descending Tampa TRACON
06:14PM 28.1833 -82.8500 145° Southeast 326 375 10,600 -660 Descending Tampa TRACON
06:15PM 28.1333 -82.7833 130° Southeast 299 344 9,700 -1,200 Descending Tampa TRACON
06:16PM 28.0833 -82.7167 130° Southeast 287 330 8,200 -1,380 Descending Tampa TRACON
06:17PM 28.0333 -82.6500 130° Southeast 276 318 7,000 -840 Descending Tampa TRACON
06:18PM 27.9833 -82.6167 150° Southeast 209 241 6,600 -900 Descending Tampa TRACON
06:19PM 27.9167 -82.6167 180° South 213 245 5,300 -1,200 Descending Tampa TRACON
06:20PM 27.8667 -82.6167 180° South 208 239 4,200 -660 Descending Tampa TRACON
06:21PM 27.8000 -82.6167 180° South 209 241 4,000 -660 Descending Tampa TRACON
06:21PM 27.7500 -82.6333 196° South 208 239 3,000 -540 Descending Tampa TRACON
06:22PM 27.7333 -82.5667 106° East 228 262 3,000 -240 Level Tampa TRACON
06:23PM 27.7833 -82.5500 16° North 181 208 2,600 -300 Descending Tampa TRACON
06:24PM 27.8333 -82.5500 360° North 189 217 2,400 -600 Descending Tampa TRACON
06:25PM 27.8833 -82.5500 360° North 156 180 1,500 -780 Descending Tampa TRACON
06:26PM 27.9167 -82.5500 360° North 133 153 900 -600 Descending Tampa TRACON